createdAt,value
2024-04-12T00:01:04.109Z,99.90
2024-04-12T00:03:33.760Z,99.90
2024-04-12T00:06:07.303Z,99.90
2024-04-12T00:08:36.035Z,99.90
2024-04-12T00:11:09.297Z,99.90
2024-04-12T00:13:42.256Z,99.90
2024-04-12T00:16:10.152Z,99.90
2024-04-12T00:18:38.654Z,99.90
2024-04-12T00:21:09.160Z,99.90
2024-04-12T00:23:36.608Z,99.90
2024-04-12T00:26:04.598Z,99.90
2024-04-12T00:28:32.273Z,99.90
2024-04-12T00:31:03.522Z,99.90
2024-04-12T00:33:34.063Z,99.90
2024-04-12T00:36:14.801Z,99.90
2024-04-12T00:38:43.069Z,99.90
2024-04-12T00:41:20.137Z,99.90
2024-04-12T00:43:49.070Z,99.90
2024-04-12T00:46:20.646Z,99.90
2024-04-12T00:48:48.189Z,99.90
2024-04-12T00:51:18.844Z,99.90
2024-04-12T00:53:47.107Z,99.90
2024-04-12T00:56:14.729Z,99.90
2024-04-12T00:58:45.087Z,99.90
2024-04-12T01:01:23.743Z,99.90
2024-04-12T01:03:54.685Z,99.90
2024-04-12T01:06:25.750Z,99.90
2024-04-12T01:08:55.904Z,99.90
2024-04-12T01:11:23.590Z,99.90
2024-04-12T01:13:52.955Z,99.90
2024-04-12T01:16:20.402Z,99.90
2024-04-12T01:18:47.977Z,99.90
2024-04-12T01:21:15.518Z,99.90
2024-04-12T01:23:44.098Z,99.90
2024-04-12T01:26:11.876Z,99.90
2024-04-12T01:28:39.571Z,99.90
2024-04-12T01:31:07.052Z,99.90
2024-04-12T01:33:35.068Z,99.90
2024-04-12T01:36:06.696Z,99.90
2024-04-12T01:38:38.369Z,99.90
2024-04-12T01:41:09.901Z,99.90
2024-04-12T01:43:37.520Z,99.90
2024-04-12T01:46:05.954Z,99.90
2024-04-12T01:48:35.183Z,99.90
2024-04-12T01:51:06.330Z,99.90
2024-04-12T01:53:41.468Z,99.90
2024-04-12T01:56:11.896Z,99.90
2024-04-12T01:58:39.591Z,99.90
2024-04-12T02:01:12.822Z,99.90
2024-04-12T02:03:41.723Z,99.90
2024-04-12T02:06:09.727Z,99.90
2024-04-12T02:08:37.809Z,99.90
2024-04-12T02:11:07.670Z,99.90
2024-04-12T02:13:39.198Z,99.90
2024-04-12T02:16:07.247Z,99.90
2024-04-12T02:18:35.157Z,99.90
2024-04-12T02:21:07.189Z,99.90
2024-04-12T02:23:35.068Z,99.90
2024-04-12T02:26:02.867Z,99.90
2024-04-12T02:28:30.313Z,99.90
2024-04-12T02:31:02.555Z,99.90
2024-04-12T02:33:33.708Z,99.90
2024-04-12T02:36:02.232Z,99.90
2024-04-12T02:38:29.856Z,99.90
2024-04-12T02:41:00.219Z,99.90
2024-04-12T02:43:30.953Z,99.90
2024-04-12T02:45:58.913Z,99.90
2024-04-12T02:48:26.485Z,99.90
2024-04-12T02:50:55.769Z,99.90
2024-04-12T02:53:24.548Z,99.90
2024-04-12T02:56:02.170Z,99.90
2024-04-12T02:58:41.785Z,99.90
2024-04-12T03:01:25.062Z,99.90
2024-04-12T03:03:53.168Z,99.90
2024-04-12T03:06:24.541Z,99.90
2024-04-12T03:08:53.013Z,99.90
2024-04-12T03:11:24.602Z,99.90
2024-04-12T03:13:52.320Z,99.90
2024-04-12T03:16:20.126Z,99.90
2024-04-12T03:18:48.264Z,99.90
2024-04-12T03:21:16.205Z,99.90
2024-04-12T03:23:46.682Z,99.90
2024-04-12T03:26:14.634Z,99.90
2024-04-12T03:28:42.398Z,99.90
2024-04-12T03:31:09.909Z,99.90
2024-04-12T03:33:46.763Z,99.90
2024-04-12T03:36:42.183Z,99.90
2024-04-12T03:39:23.872Z,99.90
2024-04-12T03:41:58.982Z,99.90
2024-04-12T03:44:33.549Z,99.90
2024-04-12T03:47:10.365Z,99.90
2024-04-12T03:49:40.836Z,99.90
2024-04-12T03:52:21.412Z,99.90
2024-04-12T03:54:49.735Z,99.90
2024-04-12T03:57:17.706Z,99.90
2024-04-12T03:59:46.699Z,99.90
2024-04-12T04:02:17.548Z,99.90
2024-04-12T04:04:50.006Z,99.90
2024-04-12T04:07:21.286Z,99.90
2024-04-12T04:09:49.036Z,99.90
2024-04-12T04:12:17.452Z,99.90
2024-04-12T04:14:50.301Z,99.90
2024-04-12T04:17:19.858Z,99.90
2024-04-12T04:19:47.564Z,99.90
2024-04-12T04:22:41.008Z,99.90
2024-04-12T04:25:10.557Z,99.90
2024-04-12T04:27:38.475Z,99.90
2024-04-12T04:30:07.445Z,99.90
2024-04-12T04:32:35.243Z,99.90
2024-04-12T04:35:10.693Z,99.90
2024-04-12T04:37:41.894Z,99.90
2024-04-12T04:40:18.571Z,99.90
2024-04-12T04:42:47.550Z,99.90
2024-04-12T04:45:19.639Z,99.90
2024-04-12T04:47:48.099Z,99.90
2024-04-12T04:50:17.029Z,99.90
2024-04-12T04:52:45.707Z,99.90
2024-04-12T04:55:13.791Z,99.90
2024-04-12T04:57:51.084Z,99.90
2024-04-12T05:00:23.965Z,99.90
2024-04-12T05:02:52.587Z,99.90
2024-04-12T05:05:29.514Z,99.90
2024-04-12T05:07:58.421Z,99.90
2024-04-12T05:10:27.014Z,99.90
2024-04-12T05:12:55.413Z,99.90
2024-04-12T05:15:50.490Z,99.90
2024-04-12T05:18:18.326Z,99.90
2024-04-12T05:20:49.164Z,99.90
2024-04-12T05:23:19.274Z,99.90
2024-04-12T05:25:51.154Z,99.90
2024-04-12T05:28:20.903Z,99.90
2024-04-12T05:30:51.017Z,99.90
2024-04-12T05:33:18.809Z,99.90
2024-04-12T05:35:47.768Z,99.90
2024-04-12T05:38:15.459Z,99.90
2024-04-12T05:40:46.925Z,99.90
2024-04-12T05:43:17.670Z,99.90
2024-04-12T05:45:51.757Z,99.90
2024-04-12T05:48:19.608Z,99.90
2024-04-12T05:50:51.129Z,99.90
2024-04-12T05:53:32.810Z,99.90
2024-04-12T05:56:20.581Z,99.90
2024-04-12T05:58:48.467Z,99.90
2024-04-12T06:01:16.680Z,99.90
2024-04-12T06:03:48.098Z,99.90
2024-04-12T06:06:16.741Z,99.90
2024-04-12T06:08:47.511Z,99.90
2024-04-12T06:11:14.993Z,99.90
2024-04-12T06:13:45.004Z,99.90
2024-04-12T06:16:13.589Z,99.90
2024-04-12T06:18:41.047Z,99.90
2024-04-12T06:21:11.818Z,99.90
2024-04-12T06:23:40.453Z,99.90
2024-04-12T06:26:07.988Z,99.90
2024-04-12T06:28:38.289Z,99.90
2024-04-12T06:31:07.401Z,99.90
2024-04-12T06:33:35.120Z,99.90
2024-04-12T06:36:06.460Z,99.90
2024-04-12T06:38:34.702Z,99.90
2024-04-12T06:41:04.154Z,99.90
2024-04-12T06:43:35.276Z,99.90
2024-04-12T06:46:15.747Z,99.90
2024-04-12T06:48:43.804Z,99.90
2024-04-12T06:51:14.587Z,99.90
2024-04-12T06:53:49.519Z,99.90
2024-04-12T06:56:18.314Z,99.90
2024-04-12T06:58:48.895Z,99.90
2024-04-12T07:01:16.890Z,99.90
2024-04-12T07:03:48.202Z,99.90
2024-04-12T07:06:17.551Z,99.90
2024-04-12T07:08:51.811Z,99.90
2024-04-12T07:11:25.953Z,99.90
2024-04-12T07:13:55.643Z,99.90
2024-04-12T07:16:25.184Z,99.90
2024-04-12T07:18:52.885Z,99.90
2024-04-12T07:21:24.736Z,99.90
2024-04-12T07:23:53.177Z,99.90
2024-04-12T07:26:28.411Z,99.90
2024-04-12T07:29:03.951Z,99.90
2024-04-12T07:31:32.385Z,99.90
2024-04-12T07:34:01.255Z,99.90
2024-04-12T07:36:32.228Z,99.90
2024-04-12T07:39:04.257Z,99.90
2024-04-12T07:41:35.503Z,99.90
2024-04-12T07:44:06.355Z,99.90
2024-04-12T07:46:37.675Z,99.90
2024-04-12T07:49:08.651Z,99.90
2024-04-12T07:51:42.269Z,99.90
2024-04-12T07:54:13.768Z,99.90
2024-04-12T07:56:45.636Z,99.90
2024-04-12T07:59:17.431Z,99.90
2024-04-12T08:01:47.958Z,99.90
2024-04-12T08:04:25.113Z,99.90
2024-04-12T08:06:53.412Z,99.80
2024-04-12T08:09:25.516Z,99.90
2024-04-12T08:11:53.395Z,99.40
2024-04-12T08:14:24.194Z,99.20
2024-04-12T08:16:55.610Z,99.00
2024-04-12T08:19:23.628Z,98.50
2024-04-12T08:21:51.422Z,98.20
2024-04-12T08:24:25.041Z,97.10
2024-04-12T08:26:55.521Z,96.60
2024-04-12T08:29:27.792Z,95.80
2024-04-12T08:32:01.650Z,95.40
2024-04-12T08:34:29.897Z,95.10
2024-04-12T08:36:58.228Z,95.00
2024-04-12T08:39:30.715Z,95.10
2024-04-12T08:41:59.859Z,94.90
2024-04-12T08:44:27.870Z,94.60
2024-04-12T08:46:55.293Z,94.50
2024-04-12T08:49:23.414Z,93.90
2024-04-12T08:51:55.083Z,93.80
2024-04-12T08:54:22.488Z,93.70
2024-04-12T08:56:53.915Z,93.50
2024-04-12T08:59:27.737Z,92.90
2024-04-12T09:01:56.125Z,92.70
2024-04-12T09:04:24.077Z,92.60
2024-04-12T09:06:52.740Z,92.80
2024-04-12T09:09:20.313Z,92.70
2024-04-12T09:11:49.652Z,92.90
2024-04-12T09:14:26.921Z,92.60
2024-04-12T09:17:01.865Z,91.40
2024-04-12T09:19:30.284Z,90.80
2024-04-12T09:22:00.207Z,91.40
2024-04-12T09:24:32.538Z,91.30
2024-04-12T09:27:11.737Z,90.70
2024-04-12T09:29:56.293Z,90.30
2024-04-12T09:32:42.543Z,90.70
2024-04-12T09:35:13.686Z,90.80
2024-04-12T09:37:43.881Z,91.30
2024-04-12T09:40:14.341Z,90.80
2024-04-12T09:42:57.366Z,90.60
2024-04-12T09:45:29.391Z,90.00
2024-04-12T09:48:23.504Z,90.20
2024-04-12T09:51:09.780Z,89.50
2024-04-12T09:53:55.990Z,88.50
2024-04-12T09:56:42.033Z,88.60
2024-04-12T10:00:01.578Z,89.00
2024-04-12T10:02:47.445Z,88.70
2024-04-12T10:05:33.556Z,89.40
2024-04-12T10:08:26.340Z,89.50
2024-04-12T10:11:13.518Z,87.80
2024-04-12T10:13:59.810Z,87.70
2024-04-12T10:16:45.954Z,87.60
2024-04-12T10:19:32.733Z,86.40
2024-04-12T10:22:31.921Z,86.70
2024-04-12T10:25:17.948Z,85.80
2024-04-12T10:28:08.210Z,86.00
2024-04-12T10:31:04.305Z,84.30
2024-04-12T10:34:00.558Z,84.70
2024-04-12T10:36:47.534Z,85.50
2024-04-12T10:39:15.385Z,83.80
2024-04-12T10:41:42.963Z,84.50
2024-04-12T10:44:14.324Z,83.00
2024-04-12T10:46:42.845Z,82.90
2024-04-12T10:49:11.141Z,82.70
2024-04-12T10:51:40.854Z,82.90
2024-04-12T10:54:12.023Z,81.50
2024-04-12T10:56:49.339Z,81.10
2024-04-12T10:59:29.319Z,80.60
2024-04-12T11:01:57.412Z,78.70
2024-04-12T11:04:30.088Z,80.00
2024-04-12T11:06:57.844Z,79.00
2024-04-12T11:09:39.422Z,80.50
2024-04-12T11:12:12.275Z,79.10
2024-04-12T11:14:40.152Z,80.10
2024-04-12T11:17:26.886Z,79.30
2024-04-12T11:20:13.140Z,80.00
2024-04-12T11:22:59.442Z,80.00
2024-04-12T11:25:45.518Z,79.60
2024-04-12T11:28:32.018Z,79.20
2024-04-12T11:31:15.980Z,77.90
2024-04-12T11:34:04.315Z,78.00
2024-04-12T11:36:41.556Z,79.70
2024-04-12T11:39:26.723Z,79.00
2024-04-12T11:41:56.652Z,75.80
2024-04-12T11:44:24.246Z,75.90
2024-04-12T11:46:55.946Z,76.20
2024-04-12T11:49:27.235Z,73.80
2024-04-12T11:52:03.467Z,76.20
2024-04-12T11:54:31.489Z,74.90
2024-04-12T11:57:00.650Z,76.80
2024-04-12T11:59:31.463Z,73.90
2024-04-12T12:02:02.491Z,73.40
2024-04-12T12:04:30.228Z,72.60
2024-04-12T12:07:04.228Z,72.70
2024-04-12T12:09:33.107Z,73.20
2024-04-12T12:12:01.959Z,71.80
2024-04-12T12:14:29.593Z,71.50
2024-04-12T12:16:59.962Z,72.50
2024-04-12T12:19:27.398Z,72.80
2024-04-12T12:21:54.842Z,70.40
2024-04-12T12:24:22.264Z,72.20
2024-04-12T12:26:51.392Z,72.10
2024-04-12T12:29:19.994Z,70.70
2024-04-12T12:31:48.257Z,70.90
2024-04-12T12:34:15.984Z,72.00
2024-04-12T12:36:45.284Z,71.70
2024-04-12T12:39:13.309Z,71.30
2024-04-12T12:41:46.792Z,72.00
2024-04-12T12:44:19.834Z,71.80
2024-04-12T12:46:47.287Z,71.50
2024-04-12T12:49:14.737Z,71.00
2024-04-12T12:51:42.199Z,69.60
2024-04-12T12:54:09.664Z,69.90
2024-04-12T12:56:37.201Z,69.10
2024-04-12T12:59:04.656Z,69.60
2024-04-12T13:01:36.289Z,69.60
2024-04-12T13:04:08.420Z,72.30
2024-04-12T13:06:36.114Z,72.00
2024-04-12T13:09:05.378Z,70.70
2024-04-12T13:11:33.199Z,71.40
2024-04-12T13:14:00.741Z,72.80
2024-04-12T13:16:28.499Z,70.50
2024-04-12T13:18:58.203Z,71.10
2024-04-12T13:21:25.963Z,70.50
2024-04-12T13:23:55.226Z,70.10
2024-04-12T13:26:26.856Z,70.20
2024-04-12T13:28:54.531Z,70.20
2024-04-12T13:31:24.990Z,70.90
2024-04-12T13:33:53.253Z,71.60
2024-04-12T13:36:21.869Z,72.10
2024-04-12T13:38:49.716Z,70.90
2024-04-12T13:41:17.402Z,71.10
2024-04-12T13:43:47.592Z,71.30
2024-04-12T13:46:33.845Z,72.30
2024-04-12T13:49:33.928Z,72.80
2024-04-12T13:52:03.157Z,72.10
2024-04-12T13:54:32.279Z,71.40
2024-04-12T13:57:00.535Z,72.30
2024-04-12T13:59:31.779Z,71.10
2024-04-12T14:02:00.541Z,71.60
2024-04-12T14:04:29.113Z,74.20
2024-04-12T14:06:56.778Z,70.90
2024-04-12T14:09:25.095Z,71.00
2024-04-12T14:11:53.018Z,71.70
2024-04-12T14:14:21.998Z,72.30
2024-04-12T14:16:50.173Z,72.50
2024-04-12T14:19:21.505Z,73.20
2024-04-12T14:21:49.785Z,72.00
2024-04-12T14:24:35.958Z,72.30
2024-04-12T14:27:05.123Z,72.40
2024-04-12T14:29:33.022Z,70.70
2024-04-12T14:32:07.169Z,71.60
2024-04-12T14:34:35.936Z,71.20
2024-04-12T14:37:04.606Z,69.50
2024-04-12T14:39:33.858Z,69.90
2024-04-12T14:42:02.170Z,71.60
2024-04-12T14:56:53.185Z,69.60
2024-04-12T14:59:40.982Z,69.50
2024-04-12T15:02:14.111Z,69.50
2024-04-12T15:05:00.071Z,68.90
2024-04-12T15:07:54.022Z,68.90
2024-04-12T15:10:42.128Z,68.50
2024-04-12T15:13:29.693Z,67.80
2024-04-12T15:16:15.934Z,69.30
2024-04-12T15:19:02.726Z,69.00
2024-04-12T15:21:48.935Z,67.40
2024-04-12T15:24:35.026Z,67.30
2024-04-12T15:27:23.307Z,67.30
2024-04-12T15:30:11.369Z,68.20
2024-04-12T15:32:57.469Z,68.80
2024-04-12T15:36:02.572Z,68.80
2024-04-12T15:38:52.405Z,68.60
2024-04-12T15:41:41.924Z,68.90
2024-04-12T15:44:30.830Z,68.10
2024-04-12T15:47:02.883Z,67.90
2024-04-12T15:49:50.038Z,68.60
2024-04-12T15:52:22.623Z,69.40
2024-04-12T15:54:53.541Z,69.10
2024-04-12T15:57:39.994Z,70.20
2024-04-12T16:00:26.337Z,69.60
2024-04-12T16:03:14.069Z,69.40
2024-04-12T16:06:01.950Z,69.70
2024-04-12T16:08:48.167Z,68.90
2024-04-12T16:11:15.769Z,69.80
2024-04-12T16:13:44.779Z,69.60
2024-04-12T16:16:12.472Z,68.90
2024-04-12T16:18:40.665Z,69.80
2024-04-12T16:21:08.261Z,69.30
2024-04-12T16:23:36.182Z,76.70
2024-04-12T16:26:05.189Z,69.70
2024-04-12T16:28:33.394Z,69.90
2024-04-12T16:31:03.739Z,70.00
2024-04-12T16:33:33.965Z,69.50
2024-04-12T16:36:01.786Z,72.50
2024-04-12T16:38:29.281Z,70.90
2024-04-12T16:40:57.242Z,72.50
2024-04-12T16:43:24.810Z,71.20
2024-04-12T16:45:52.253Z,72.50
2024-04-12T16:48:19.863Z,71.90
2024-04-12T16:50:47.398Z,74.00
2024-04-12T16:53:14.974Z,74.70
2024-04-12T16:55:42.371Z,75.40
2024-04-12T16:58:11.065Z,75.60
2024-04-12T17:00:40.854Z,75.30
2024-04-12T17:03:10.302Z,76.10
2024-04-12T17:05:38.025Z,76.80
2024-04-12T17:08:05.771Z,75.50
2024-04-12T17:10:33.425Z,75.30
2024-04-12T17:13:00.959Z,75.90
2024-04-12T17:15:29.489Z,76.30
2024-04-12T17:17:57.583Z,76.50
2024-04-12T17:20:25.182Z,77.20
2024-04-12T17:22:52.613Z,77.10
2024-04-12T17:25:20.595Z,76.70
2024-04-12T17:27:51.659Z,77.20
2024-04-12T17:30:20.718Z,77.10
2024-04-12T17:32:48.396Z,77.60
2024-04-12T17:35:16.295Z,78.40
2024-04-12T17:37:44.370Z,79.20
2024-04-12T17:40:13.132Z,79.70
2024-04-12T17:42:40.657Z,80.10
2024-04-12T17:45:08.170Z,80.80
2024-04-12T17:47:35.625Z,81.20
2024-04-12T17:50:05.368Z,81.40
2024-04-12T17:52:32.960Z,81.70
2024-04-12T17:55:00.518Z,81.80
2024-04-12T17:57:30.717Z,82.10
2024-04-12T17:59:58.659Z,82.30
2024-04-12T18:02:26.751Z,82.80
2024-04-12T18:04:54.351Z,83.10
2024-04-12T18:07:21.895Z,83.80
2024-04-12T18:09:49.359Z,82.70
2024-04-12T18:12:16.894Z,83.40
2024-04-12T18:14:45.103Z,84.30
2024-04-12T18:17:12.682Z,84.70
2024-04-12T18:19:40.223Z,84.60
2024-04-12T18:22:08.380Z,84.00
2024-04-12T18:24:36.108Z,83.60
2024-04-12T18:27:03.710Z,83.70
2024-04-12T18:29:31.883Z,84.10
2024-04-12T18:32:01.920Z,84.70
2024-04-12T18:34:30.456Z,85.70
2024-04-12T18:37:36.060Z,85.90
2024-04-12T18:40:21.939Z,86.40
2024-04-12T18:43:08.093Z,86.60
2024-04-12T18:45:35.635Z,86.90
2024-04-12T18:48:04.276Z,87.30
2024-04-12T18:50:34.739Z,87.80
2024-04-12T18:53:05.162Z,88.50
2024-04-12T18:55:32.930Z,88.90
2024-04-12T18:58:00.701Z,89.50
2024-04-12T19:00:28.404Z,90.00
2024-04-12T19:02:56.074Z,90.10
2024-04-12T19:05:23.585Z,90.20
2024-04-12T19:07:51.856Z,90.30
2024-04-12T19:10:19.275Z,90.40
2024-04-12T19:12:47.507Z,90.60
2024-04-12T19:15:17.195Z,91.00
2024-04-12T19:17:44.721Z,91.30
2024-04-12T19:20:14.016Z,91.30
2024-04-12T19:22:41.467Z,91.40
2024-04-12T19:25:10.298Z,91.60
2024-04-12T19:27:37.703Z,91.80
2024-04-12T19:30:07.809Z,92.00
2024-04-12T19:32:35.356Z,92.20
2024-04-12T19:35:02.906Z,92.40
2024-04-12T19:37:30.349Z,92.50
2024-04-12T19:39:57.739Z,92.60
2024-04-12T19:42:25.319Z,92.70
2024-04-12T19:44:53.066Z,93.00
2024-04-12T19:47:20.791Z,93.10
2024-04-12T19:49:49.303Z,93.40
2024-04-12T19:52:16.770Z,93.60
2024-04-12T19:54:44.339Z,93.70
2024-04-12T19:57:11.829Z,94.10
2024-04-12T19:59:39.355Z,94.30
2024-04-12T20:02:08.511Z,94.40
2024-04-12T20:04:36.034Z,94.60
2024-04-12T20:07:03.620Z,94.90
2024-04-12T20:09:32.382Z,95.40
2024-04-12T20:12:00.054Z,95.40
2024-04-12T20:14:29.346Z,96.10
2024-04-12T20:16:56.879Z,96.00
2024-04-12T20:19:24.634Z,96.20
2024-04-12T20:21:54.225Z,96.50
2024-04-12T20:24:29.131Z,96.80
2024-04-12T20:26:56.781Z,97.00
2024-04-12T20:29:24.941Z,97.20
2024-04-12T20:32:07.694Z,97.40
2024-04-12T20:34:48.973Z,97.70
2024-04-12T20:37:19.793Z,98.00
2024-04-12T20:39:47.233Z,98.20
2024-04-12T20:42:14.653Z,98.40
2024-04-12T20:44:42.100Z,98.60
2024-04-12T20:47:10.074Z,98.80
2024-04-12T20:49:37.555Z,99.20
2024-04-12T20:52:08.044Z,99.50
2024-04-12T20:54:37.942Z,99.90
2024-04-12T20:57:05.615Z,99.90
2024-04-12T20:59:33.154Z,99.90
2024-04-12T21:02:00.639Z,99.90
2024-04-12T21:04:28.313Z,99.90
2024-04-12T21:06:55.949Z,99.90
2024-04-12T21:09:23.437Z,99.90
2024-04-12T21:11:52.955Z,99.90
2024-04-12T21:14:20.881Z,99.90
2024-04-12T21:16:48.302Z,99.90
2024-04-12T21:19:16.405Z,99.90
2024-04-12T21:21:43.863Z,99.90
2024-04-12T21:24:15.838Z,99.90
2024-04-12T21:26:44.341Z,99.90
2024-04-12T21:29:12.322Z,99.90
2024-04-12T21:31:39.810Z,99.90
2024-04-12T21:34:07.325Z,99.90
2024-04-12T21:36:34.826Z,99.90
2024-04-12T21:39:06.217Z,99.90
2024-04-12T21:41:34.126Z,99.90
2024-04-12T21:44:01.552Z,99.90
2024-04-12T21:46:29.118Z,99.90
2024-04-12T21:48:56.623Z,99.90
2024-04-12T21:51:28.874Z,99.90
2024-04-12T21:53:56.545Z,99.90
2024-04-12T21:56:24.107Z,99.90
2024-04-12T21:58:51.621Z,99.90
2024-04-12T22:01:19.471Z,99.90
2024-04-12T22:03:47.324Z,99.90
2024-04-12T22:06:15.411Z,99.90
2024-04-12T22:08:42.981Z,99.90
2024-04-12T22:11:10.505Z,99.90
2024-04-12T22:13:38.085Z,99.90
2024-04-12T22:16:14.131Z,99.90
2024-04-12T22:18:42.171Z,99.90
2024-04-12T22:21:11.941Z,99.90
2024-04-12T22:23:40.406Z,99.90
2024-04-12T22:26:08.812Z,99.90
2024-04-12T22:28:40.898Z,99.90
2024-04-12T22:31:18.259Z,99.90
2024-04-12T22:33:46.215Z,99.90
2024-04-12T22:36:15.020Z,99.90
2024-04-12T22:38:42.622Z,99.90
2024-04-12T22:41:10.195Z,99.90
2024-04-12T22:43:37.644Z,99.90
2024-04-12T22:46:05.352Z,99.90
2024-04-12T22:48:33.050Z,99.90
2024-04-12T22:51:00.592Z,99.90
2024-04-12T22:53:28.052Z,99.90
2024-04-12T22:55:56.767Z,99.90
2024-04-12T22:58:26.000Z,99.90
2024-04-12T23:00:53.651Z,99.90
2024-04-12T23:03:21.244Z,99.90
2024-04-12T23:05:49.144Z,99.90
2024-04-12T23:08:16.659Z,99.90
2024-04-12T23:10:47.345Z,99.90
2024-04-12T23:13:15.385Z,99.90
2024-04-12T23:15:42.791Z,99.90
2024-04-12T23:18:13.834Z,99.90
2024-04-12T23:20:41.663Z,99.90
2024-04-12T23:23:09.719Z,99.90
2024-04-12T23:25:38.155Z,99.90
2024-04-12T23:28:08.672Z,99.90
2024-04-12T23:30:36.859Z,99.90
2024-04-12T23:33:04.534Z,99.90
2024-04-12T23:35:32.358Z,99.90
2024-04-12T23:38:01.391Z,99.90
2024-04-12T23:40:28.800Z,99.90
2024-04-12T23:42:56.231Z,99.90
2024-04-12T23:45:23.656Z,99.90
2024-04-12T23:47:51.292Z,99.90
2024-04-12T23:50:18.731Z,99.90
2024-04-12T23:52:46.137Z,99.90
2024-04-12T23:55:13.550Z,99.90
2024-04-12T23:57:40.960Z,99.90
